Accueil
METAR-TAF:

METAR-TAF

Aéroports :

Aéroport de Biarritz Pays Basque

Biarritz, France

latitude: 43-28N, longitude: 001-32W, altitude: 75 m

Observation

Le bulletin a été fait il y a 31 minutes, à 07:00 UTC
Vent 7 kt de sud/sud-est
Température 11°C
Humidité 66%
Pression 1019 hPa
Visibilité 10 km ou plus
pas de nuages en-dessous de 1500 mètres et pas de cumulonimbus.

METAR: LFBZ 240700Z AUTO 16007KT CAVOK 11/05 Q1019 NOSIG

Heure: 08:31 (07:31 UTC)

Prévision

Le bulletin a été fait il y a 2 heures et 31 minutes, à 05:00 UTC
Prévision valable du 24 à 06 UTC au 25 à 06 UTC
Vent 5 kt de est/sud-est
Visibilité 10 km ou plus
pas de nuages en-dessous de 1500 mètres et pas de cumulonimbus.

TAF: LFBZ 240500Z 2406/2506 12005KT CAVOK

Observations et prévisions météorologiques de plus de 4000 aéroports (messages METAR et TAF).

Les stations disponibles sont représentées par des disques jaunes et rouges sur la carte.

Passer la souris dessus pour voir le nom de la station.

Cliquer dessus pour voir les observations et prévisions météorologiques.

Pour changer de carte: cliquez sur les boutons verts avec une croix noire pour zoomer, sur le bouton vert avec un tiret pour effectuer un zoom arrière, ou sur les flèches vertes pour les cartes adjacentes.


METAR-TAF: